Time;durP1;ratioP1;P1;durP2;ratioP2;P2;SDS_P1;SDS_P2;PMS_P1;PMS_P2;Temp;Humidity;BMP_temperature;BMP_pressure;BME280_temperature;BME280_humidity;BME280_pressure;Samples;Min_cycle;Max_cycle;Signal;HPM_P1;HPM_P2
2023/02/01 00:00:20;;;;;;;11.70;5.40;;;;;;;0.35;80.73;98545.88;107627;1253;62401;-39
2023/02/01 00:02:48;;;;;;;14.60;5.60;;;;;;;0.35;80.68;98544.91;107640;1254;61153;-39
2023/02/01 00:05:17;;;;;;;12.60;6.60;;;;;;;0.33;80.72;98549.91;107610;1256;72569;-39
2023/02/01 00:07:48;;;;;;;11.80;6.40;;;;;;;0.28;80.79;98547.63;107521;1254;70024;-39
2023/02/01 00:10:17;;;;;;;11.80;6.10;;;;;;;0.22;80.58;98543.14;107599;1254;73867;-39
2023/02/01 00:12:47;;;;;;;12.60;6.00;;;;;;;0.15;80.70;98546.16;107623;1254;60599;-39
2023/02/01 00:15:15;;;;;;;10.90;5.80;;;;;;;0.10;80.49;98542.89;107602;1254;61237;-39
2023/02/01 00:17:45;;;;;;;9.00;4.50;;;;;;;0.10;80.47;98542.45;107610;1257;73823;-39
2023/02/01 00:20:13;;;;;;;13.20;6.00;;;;;;;0.13;80.06;98538.27;107568;1254;68926;-39
2023/02/01 00:22:42;;;;;;;13.20;6.60;;;;;;;0.12;80.11;98536.81;107602;1254;73888;-39
2023/02/01 00:25:10;;;;;;;14.30;6.70;;;;;;;0.08;80.04;98537.41;106863;1254;1003764;-39
2023/02/01 00:27:39;;;;;;;13.40;6.30;;;;;;;0.05;80.06;98537.02;107600;1253;61270;-39
2023/02/01 00:30:08;;;;;;;10.00;5.30;;;;;;;0.04;80.14;98534.85;107597;1254;74315;-39
2023/02/01 00:32:37;;;;;;;10.80;5.30;;;;;;;0.02;80.17;98535.52;107537;1254;69746;-39
2023/02/01 00:35:08;;;;;;;11.00;5.00;;;;;;;0.04;79.92;98532.73;107431;1254;73579;-39
2023/02/01 00:37:38;;;;;;;9.90;5.00;;;;;;;0.12;79.85;98528.85;107649;1254;59612;-39
2023/02/01 00:40:07;;;;;;;11.60;5.10;;;;;;;0.15;79.60;98527.16;107637;1254;61583;-40
2023/02/01 00:42:36;;;;;;;12.40;5.90;;;;;;;0.11;79.51;98523.23;106943;1254;1002990;-39
2023/02/01 00:45:06;;;;;;;10.50;4.70;;;;;;;0.05;79.79;98521.05;107663;1254;68838;-39
2023/02/01 00:47:34;;;;;;;13.20;5.80;;;;;;;0.00;80.06;98518.02;107642;1254;73794;-38
2023/02/01 00:50:04;;;;;;;10.40;4.90;;;;;;;0.01;80.38;98519.58;107630;1257;62389;-38
2023/02/01 00:52:32;;;;;;;9.70;4.40;;;;;;;0.07;80.43;98524.36;107643;1254;61322;-39
2023/02/01 00:55:01;;;;;;;14.30;5.90;;;;;;;0.10;80.69;98521.61;107640;1253;74235;-38
2023/02/01 00:57:30;;;;;;;14.70;5.80;;;;;;;0.09;81.05;98523.20;107562;1254;69995;-39
2023/02/01 00:59:58;;;;;;;13.60;5.70;;;;;;;0.09;81.39;98525.05;107406;1254;73906;-38
2023/02/01 01:02:27;;;;;;;13.00;5.60;;;;;;;0.10;81.71;98525.34;107414;1260;61301;-39
2023/02/01 01:04:57;;;;;;;11.40;6.10;;;;;;;0.15;81.87;98529.20;107430;1254;61202;-38
2023/02/01 01:07:27;;;;;;;15.00;6.10;;;;;;;0.21;81.86;98528.36;107628;1253;73090;-38
2023/02/01 01:09:56;;;;;;;16.20;6.00;;;;;;;0.25;81.90;98527.78;107599;1257;69947;-38
2023/02/01 01:12:24;;;;;;;14.40;6.20;;;;;;;0.27;82.06;98527.69;107435;1254;72899;-38
2023/02/01 01:14:53;;;;;;;18.50;6.00;;;;;;;0.28;82.29;98527.37;107529;1257;60501;-39
2023/02/01 01:17:21;;;;;;;16.20;6.40;;;;;;;0.29;82.44;98525.73;107408;1254;61475;-38
2023/02/01 01:19:50;;;;;;;12.60;5.60;;;;;;;0.33;82.42;98523.33;107564;1253;74126;-39
2023/02/01 01:22:18;;;;;;;17.50;6.00;;;;;;;0.41;82.38;98521.42;107427;1254;69930;-39
2023/02/01 01:24:47;;;;;;;16.50;6.20;;;;;;;0.48;82.28;98521.08;107539;1254;74148;-39
2023/02/01 01:27:22;;;;;;;;;;;;;;;0.52;82.53;98522.56;107608;1254;60814;-39
2023/02/01 01:29:51;;;;;;;11.50;5.60;;;;;;;0.47;82.62;98522.21;107645;1254;61349;-39
2023/02/01 01:32:20;;;;;;;16.10;6.20;;;;;;;0.45;82.78;98521.02;107492;1254;74230;-38
2023/02/01 01:34:48;;;;;;;13.50;5.70;;;;;;;0.52;82.74;98521.11;107391;1253;69912;-38
2023/02/01 01:37:17;;;;;;;15.40;5.80;;;;;;;0.61;82.66;98514.90;107524;1254;73697;-39
2023/02/01 01:39:45;;;;;;;18.50;7.20;;;;;;;0.70;82.63;98517.26;107373;1254;60125;-39
2023/02/01 01:42:14;;;;;;;18.30;7.20;;;;;;;0.72;82.43;98515.98;107650;1254;61553;-39
2023/02/01 05:51:38;;;;;;;17.30;7.60;;;;;;;0.27;84.96;98453.00;105142;1285;613603;-36
2023/02/01 05:54:08;;;;;;;17.80;7.40;;;;;;;0.74;82.99;98448.46;105032;1264;1005403;-37
2023/02/01 05:56:36;;;;;;;25.70;7.80;;;;;;;0.68;82.92;98446.36;106731;1270;61610;-38
2023/02/01 05:59:05;;;;;;;15.10;7.40;;;;;;;0.67;82.35;98447.09;106782;1264;72463;-37
2023/02/01 06:01:34;;;;;;;23.90;7.70;;;;;;;0.69;81.72;98445.67;106855;1263;69935;-38
2023/02/01 06:04:02;;;;;;;18.40;7.00;;;;;;;0.66;81.41;98442.14;106816;1269;74262;-38
2023/02/01 06:06:31;;;;;;;18.80;8.00;;;;;;;0.62;80.93;98439.80;106847;1269;60780;-38
2023/02/01 06:09:00;;;;;;;16.50;7.70;;;;;;;0.54;80.45;98440.39;106877;1269;61524;-37
2023/02/01 06:11:29;;;;;;;19.90;8.00;;;;;;;0.47;80.20;98437.86;106826;1263;72439;-37
2023/02/01 06:14:00;;;;;;;15.80;7.10;;;;;;;0.47;79.94;98435.41;106860;1268;69694;-37
2023/02/01 06:16:29;;;;;;;18.60;7.50;;;;;;;0.51;79.67;98435.45;106833;1270;71706;-37
2023/02/01 06:18:58;;;;;;;18.20;7.50;;;;;;;0.53;79.59;98430.89;107011;1267;60771;-37
2023/02/01 06:21:26;;;;;;;18.30;7.50;;;;;;;0.53;79.30;98432.48;107034;1265;60686;-37
2023/02/01 06:23:57;;;;;;;18.80;7.80;;;;;;;0.49;79.31;98429.53;107068;1266;74237;-37
2023/02/01 06:26:28;;;;;;;16.30;6.80;;;;;;;0.42;79.13;98432.41;107002;1261;69864;-37
2023/02/01 06:28:57;;;;;;;18.40;7.50;;;;;;;0.34;79.20;98430.05;107069;1261;73825;-37
2023/02/01 06:31:25;;;;;;;18.30;7.50;;;;;;;0.34;79.50;98430.69;106956;1261;62411;-38
2023/02/01 06:33:54;;;;;;;14.70;6.70;;;;;;;0.41;79.40;98431.46;106885;1266;61204;-37
2023/02/01 06:36:25;;;;;;;19.20;7.50;;;;;;;0.44;79.28;98431.05;106954;1261;73898;-37
2023/02/01 06:38:56;;;;;;;14.80;7.20;;;;;;;0.44;79.27;98432.40;106890;1260;69314;-37
2023/02/01 06:41:25;;;;;;;17.80;7.80;;;;;;;0.42;79.11;98428.45;106910;1264;73666;-37
2023/02/01 06:43:56;;;;;;;22.00;8.20;;;;;;;0.39;79.14;98430.14;106909;1261;60797;-37
2023/02/01 06:46:25;;;;;;;15.40;6.50;;;;;;;0.37;79.21;98426.92;106972;1260;61517;-37
2023/02/01 06:48:54;;;;;;;14.90;7.40;;;;;;;0.41;79.31;98428.08;107046;1261;74238;-37
2023/02/01 06:51:24;;;;;;;16.90;6.70;;;;;;;0.53;79.38;98423.55;106941;1266;69855;-37
2023/02/01 06:53:53;;;;;;;18.10;7.20;;;;;;;0.61;79.02;98421.48;106983;1265;73906;-37
2023/02/01 06:56:22;;;;;;;16.00;7.00;;;;;;;0.63;79.14;98417.70;106903;1260;60964;-37
2023/02/01 06:58:51;;;;;;;18.40;7.30;;;;;;;0.66;79.03;98416.50;106954;1261;61358;-36
2023/02/01 07:01:19;;;;;;;16.70;8.10;;;;;;;0.69;78.97;98412.88;106963;1266;74225;-37
2023/02/01 07:03:50;;;;;;;23.20;9.20;;;;;;;0.71;78.66;98418.09;107052;1261;69786;-37
2023/02/01 07:06:19;;;;;;;16.50;8.10;;;;;;;0.75;78.35;98418.27;107041;1266;71910;-37
2023/02/01 07:08:50;;;;;;;19.90;8.70;;;;;;;0.85;78.06;98415.79;106975;1266;59914;-37
2023/02/01 07:11:19;;;;;;;21.10;9.30;;;;;;;0.90;77.68;98417.35;107030;1266;61586;-37
2023/02/01 07:13:47;;;;;;;20.50;9.30;;;;;;;0.89;77.64;98413.52;107068;1260;74252;-37
2023/02/01 07:16:18;;;;;;;18.50;8.40;;;;;;;0.90;77.65;98413.39;106933;1265;70036;-37
2023/02/01 07:18:46;;;;;;;20.10;8.70;;;;;;;0.90;77.79;98409.66;107036;1261;73078;-37
2023/02/01 07:21:15;;;;;;;14.70;6.70;;;;;;;0.89;77.81;98405.52;107044;1264;62430;-38
2023/02/01 07:23:43;;;;;;;21.30;8.50;;;;;;;0.97;77.74;98402.70;107058;1261;60387;-37
2023/02/01 07:26:13;;;;;;;16.50;8.30;;;;;;;1.08;77.67;98402.91;107064;1260;73371;-38
2023/02/01 07:28:42;;;;;;;15.40;6.90;;;;;;;1.11;77.19;98400.08;107279;1257;69725;-36
2023/02/01 07:31:15;;;;;;;19.60;8.30;;;;;;;1.07;77.18;98403.56;107217;1257;73844;-36
2023/02/01 07:33:43;;;;;;;21.70;8.70;;;;;;;1.02;77.08;98397.27;107199;1257;60752;-36
2023/02/01 07:36:13;;;;;;;21.00;9.10;;;;;;;0.97;77.04;98390.27;107275;1257;61566;-39
2023/02/01 07:38:42;;;;;;;;;;;;;;;0.92;77.20;98388.17;107183;1258;75223;-37
2023/02/01 07:41:11;;;;;;;19.50;8.20;;;;;;;0.96;77.25;98388.64;107251;1260;69665;-37
2023/02/01 07:43:39;;;;;;;17.70;8.10;;;;;;;1.00;76.86;98386.11;107248;1258;71978;-37
2023/02/01 07:46:09;;;;;;;19.80;7.50;;;;;;;1.02;76.59;98382.93;107195;1257;59753;-38
2023/02/01 07:48:38;;;;;;;20.50;8.50;;;;;;;1.03;76.37;98379.92;107099;1258;61551;-38
2023/02/01 07:51:14;;;;;;;14.90;6.00;;;;;;;1.01;76.30;98377.56;107221;1260;74248;-38
2023/02/01 07:53:43;;;;;;;18.70;9.40;;;;;;;1.00;76.30;98375.84;107282;1257;69951;-38
2023/02/01 07:56:12;;;;;;;20.20;7.70;;;;;;;1.04;75.84;98377.30;107097;1257;73767;-38
2023/02/01 07:58:41;;;;;;;;;;;;;;;1.10;75.65;98376.61;107277;1258;59728;-38
2023/02/01 08:01:20;;;;;;;19.90;7.60;;;;;;;1.07;75.66;98371.60;107272;1257;61332;-38
2023/02/01 08:03:53;;;;;;;21.40;8.60;;;;;;;1.05;75.74;98363.77;107257;1257;74236;-38
2023/02/01 08:06:22;;;;;;;16.00;8.00;;;;;;;1.08;75.23;98365.02;107227;1257;69703;-38
2023/02/01 08:08:52;;;;;;;17.00;7.70;;;;;;;1.10;75.12;98366.84;107257;1257;72069;-38
2023/02/01 08:11:21;;;;;;;15.20;7.70;;;;;;;1.16;74.87;98364.27;107159;1260;62300;-38
2023/02/01 08:13:50;;;;;;;15.80;8.40;;;;;;;1.23;73.59;98370.44;107276;1257;61619;-38
2023/02/01 08:16:19;;;;;;;16.40;7.50;;;;;;;1.26;73.76;98367.96;107254;1258;72193;-38
2023/02/01 08:18:47;;;;;;;14.50;7.90;;;;;;;1.25;73.63;98367.01;107233;1258;70357;-38
2023/02/01 08:21:22;;;;;;;22.50;9.70;;;;;;;1.23;73.80;98365.55;107237;1257;71999;-37
2023/02/01 08:23:50;;;;;;;16.90;7.90;;;;;;;1.23;73.44;98360.60;107239;1257;60504;-37
2023/02/01 08:26:24;;;;;;;18.60;9.00;;;;;;;1.25;73.24;98368.13;107196;1260;61567;-37
2023/02/01 08:28:54;;;;;;;23.20;10.30;;;;;;;1.31;73.29;98365.86;107671;1254;74224;-37
2023/02/01 08:31:24;;;;;;;19.70;10.60;;;;;;;1.43;72.77;98361.88;107541;1254;69871;-37
2023/02/01 08:33:54;;;;;;;20.40;8.80;;;;;;;1.49;72.39;98365.54;107593;1254;73806;-37
2023/02/01 08:36:23;;;;;;;14.90;8.20;;;;;;;1.51;72.37;98368.08;107568;1253;60673;-37
2023/02/01 08:38:51;;;;;;;18.50;8.50;;;;;;;1.51;71.96;98363.09;107599;1254;60443;-37
2023/02/01 08:41:22;;;;;;;17.10;8.20;;;;;;;1.48;71.47;98360.40;107594;1254;73963;-37
2023/02/01 08:43:51;;;;;;;14.50;6.90;;;;;;;1.44;71.76;98360.11;107667;1254;69752;-37
2023/02/01 08:46:20;;;;;;;17.50;8.10;;;;;;;1.46;71.30;98358.48;107609;1254;73523;-37
2023/02/01 08:48:49;;;;;;;16.40;7.60;;;;;;;1.53;71.20;98352.06;107635;1254;59502;-37
2023/02/01 08:51:18;;;;;;;19.20;9.00;;;;;;;1.56;70.72;98347.68;107647;1254;61155;-37
2023/02/01 08:53:47;;;;;;;15.10;6.70;;;;;;;1.57;70.60;98344.09;107655;1254;73230;-37
2023/02/01 08:56:16;;;;;;;17.10;8.20;;;;;;;1.57;70.55;98339.61;107621;1254;69960;-37
2023/02/01 08:58:44;;;;;;;22.40;9.90;;;;;;;1.57;70.56;98336.00;107643;1254;73512;-37
2023/02/01 09:01:14;;;;;;;23.20;8.90;;;;;;;1.57;70.58;98328.44;107646;1254;60846;-37
2023/02/01 09:03:43;;;;;;;20.20;9.50;;;;;;;1.56;70.93;98331.55;107676;1254;59650;-37
2023/02/01 09:06:13;;;;;;;21.20;8.10;;;;;;;1.59;71.46;98321.89;107637;1254;74375;-38
2023/02/01 09:08:46;;;;;;;16.40;7.50;;;;;;;1.54;71.67;98323.91;107601;1254;69911;-37
2023/02/01 09:11:17;;;;;;;16.10;7.80;;;;;;;1.47;72.32;98325.27;107622;1257;73511;-38
2023/02/01 09:13:46;;;;;;;19.90;9.10;;;;;;;1.41;72.85;98321.89;107659;1253;60221;-38
2023/02/01 09:16:14;;;;;;;18.90;9.50;;;;;;;1.34;73.76;98313.77;107603;1254;61468;-38
2023/02/01 09:18:44;;;;;;;19.90;7.40;;;;;;;1.36;73.96;98310.80;107491;1254;73545;-38
2023/02/01 09:21:29;;;;;;;21.30;7.00;;;;;;;1.39;74.46;98303.74;107611;1254;69928;-38
2023/02/01 09:23:57;;;;;;;17.30;8.10;;;;;;;1.38;74.87;98300.89;107589;1254;73826;-38
2023/02/01 09:26:26;;;;;;;18.40;8.60;;;;;;;1.39;75.24;98303.68;106818;1254;1003058;-38
2023/02/01 09:29:00;;;;;;;17.60;7.60;;;;;;;1.37;75.57;98301.14;107589;1254;61579;-38
2023/02/01 09:31:30;;;;;;;16.50;7.80;;;;;;;1.40;75.83;98298.59;107615;1254;74328;-38
2023/02/01 14:09:36;;;;;;;6.00;4.90;;;;;;;1.56;92.78;98179.75;105054;1285;612095;-37
2023/02/01 14:12:44;;;;;;;8.60;5.40;;;;;;;2.05;90.76;98183.64;106489;1264;185268;-38
2023/02/01 14:15:20;;;;;;;7.90;5.80;;;;;;;2.00;90.75;98185.87;106718;1264;61537;-38
2023/02/01 14:17:50;;;;;;;8.00;5.70;;;;;;;1.96;90.50;98182.52;106711;1265;72313;-37
2023/02/01 14:20:50;;;;;;;7.10;5.40;;;;;;;1.97;89.79;98183.92;106805;1268;68977;-39
2023/02/01 14:23:21;;;;;;;8.90;5.70;;;;;;;2.02;89.55;98189.52;106752;1264;70940;-39
2023/02/01 14:26:02;;;;;;;7.50;5.20;;;;;;;1.99;89.30;98187.41;106738;1264;60808;-39
2023/02/01 14:28:32;;;;;;;8.50;5.60;;;;;;;1.98;88.90;98191.81;106846;1264;61165;-38
2023/02/01 14:31:00;;;;;;;9.30;5.90;;;;;;;2.01;88.63;98192.37;106803;1264;73466;-39
2023/02/01 14:33:29;;;;;;;8.80;5.70;;;;;;;2.06;87.99;98196.91;106866;1264;68042;-38
2023/02/01 14:36:09;;;;;;;10.50;6.20;;;;;;;2.04;87.69;98198.52;106849;1264;73765;-39
2023/02/01 14:38:38;;;;;;;8.30;6.00;;;;;;;2.01;87.76;98205.08;105983;1264;1016347;-39
2023/02/01 14:41:34;;;;;;;9.80;6.40;;;;;;;1.98;87.64;98210.21;106376;1257;1003617;-39
2023/02/01 14:44:02;;;;;;;8.80;5.40;;;;;;;2.01;87.34;98213.15;107085;1258;74267;-39
2023/02/01 14:47:02;;;;;;;9.10;5.80;;;;;;;2.06;87.21;98215.14;107172;1258;69965;-39
2023/02/01 14:49:39;;;;;;;10.10;6.30;;;;;;;2.08;87.06;98216.91;107187;1257;73876;-39
2023/02/01 14:52:13;;;;;;;14.10;6.80;;;;;;;2.05;87.03;98217.02;107240;1257;60201;-39
2023/02/01 14:54:41;;;;;;;10.50;6.60;;;;;;;2.03;87.00;98214.73;107253;1258;61527;-39
2023/02/01 14:57:16;;;;;;;8.60;6.10;;;;;;;2.06;86.66;98219.73;107123;1257;74339;-38
2023/02/01 14:59:45;;;;;;;10.00;6.40;;;;;;;2.10;86.01;98221.58;107238;1257;69943;-39
2023/02/01 15:02:20;;;;;;;13.20;7.80;;;;;;;2.09;85.98;98222.05;107199;1257;73642;-39
2023/02/01 15:04:54;;;;;;;10.00;6.10;;;;;;;2.06;86.01;98225.37;107269;1263;60482;-39
2023/02/01 15:07:26;;;;;;;10.40;6.30;;;;;;;1.99;85.85;98226.23;107192;1257;61514;-39
2023/02/01 15:09:56;;;;;;;7.40;5.30;;;;;;;1.98;85.87;98227.55;107110;1257;74283;-39
2023/02/01 15:12:30;;;;;;;11.40;6.20;;;;;;;2.04;85.64;98235.02;107243;1257;69927;-39
2023/02/01 15:15:19;;;;;;;8.40;6.20;;;;;;;2.05;85.81;98239.78;107207;1258;73700;-38
2023/02/01 15:17:57;;;;;;;11.30;6.00;;;;;;;2.03;85.63;98243.09;107246;1261;60838;-39
2023/02/01 15:20:30;;;;;;;11.90;6.60;;;;;;;2.00;85.82;98246.84;107222;1257;61216;-39
2023/02/01 15:23:02;;;;;;;10.80;5.80;;;;;;;2.01;85.72;98248.88;107246;1257;73920;-39
2023/02/01 15:25:36;;;;;;;9.60;6.00;;;;;;;2.05;85.48;98253.30;107245;1257;69816;-39
2023/02/01 15:28:08;;;;;;;10.50;6.60;;;;;;;2.04;85.65;98255.95;107212;1257;71330;-39
2023/02/01 15:30:36;;;;;;;11.70;7.00;;;;;;;2.00;86.01;98256.62;107067;1257;60742;-39
2023/02/01 15:33:06;;;;;;;11.60;5.70;;;;;;;1.94;85.94;98260.20;107222;1257;61538;-39
2023/02/01 15:35:42;;;;;;;9.90;6.10;;;;;;;1.95;86.10;98259.51;107208;1257;74256;-38
2023/02/01 15:38:27;;;;;;;11.00;6.20;;;;;;;2.02;85.96;98263.05;107288;1257;69960;-38
2023/02/01 15:41:01;;;;;;;10.70;6.90;;;;;;;2.03;86.09;98264.08;107228;1257;72216;-39
2023/02/01 15:43:57;;;;;;;11.10;6.90;;;;;;;2.00;86.09;98266.02;107228;1263;60388;-39
2023/02/01 15:46:31;;;;;;;11.40;6.70;;;;;;;1.97;86.00;98266.31;107112;1257;61555;-39
2023/02/01 15:49:02;;;;;;;14.90;7.60;;;;;;;1.99;86.04;98266.16;107230;1257;73215;-39
2023/02/01 15:51:34;;;;;;;13.10;7.50;;;;;;;2.03;85.98;98267.52;107203;1257;69797;-39
2023/02/01 15:54:09;;;;;;;12.80;6.90;;;;;;;2.04;85.96;98270.60;107063;1257;73886;-39
2023/02/01 15:56:41;;;;;;;11.50;7.10;;;;;;;2.02;85.97;98273.90;107243;1257;59626;-39
2023/02/01 15:59:16;;;;;;;12.70;6.30;;;;;;;1.98;86.03;98274.13;107243;1258;59618;-38
2023/02/01 16:01:45;;;;;;;10.30;6.50;;;;;;;2.00;85.83;98273.16;107287;1257;74022;-39
2023/02/01 16:04:24;;;;;;;11.20;6.40;;;;;;;2.06;85.73;98275.87;107309;1257;69902;-39
2023/02/01 16:07:00;;;;;;;12.00;6.50;;;;;;;2.07;85.54;98273.45;106585;1257;1003552;-39
2023/02/01 16:09:40;;;;;;;12.80;6.00;;;;;;;2.01;85.84;98277.77;107186;1257;59746;-39
2023/02/01 16:12:38;;;;;;;12.70;6.10;;;;;;;1.95;85.83;98278.67;107281;1257;61884;-39
2023/02/01 16:15:08;;;;;;;11.90;5.80;;;;;;;1.93;85.74;98277.24;107144;1257;74083;-39
2023/02/01 16:17:36;;;;;;;9.80;5.90;;;;;;;1.91;85.82;98278.38;107310;1256;67918;-39
2023/02/01 16:20:05;;;;;;;11.30;7.10;;;;;;;1.87;85.89;98276.58;107239;1257;73896;-39
2023/02/01 16:22:34;;;;;;;9.80;4.90;;;;;;;1.82;86.11;98275.69;107286;1257;60168;-39
2023/02/01 16:25:03;;;;;;;10.40;5.80;;;;;;;1.82;86.29;98277.83;107251;1257;61421;-39
2023/02/01 16:27:32;;;;;;;16.00;7.30;;;;;;;1.87;86.12;98279.85;107219;1260;73991;-39
2023/02/01 16:30:01;;;;;;;12.90;7.10;;;;;;;1.88;86.20;98282.27;107265;1260;69928;-39
2023/02/01 16:32:29;;;;;;;12.90;7.10;;;;;;;1.85;86.43;98276.81;107312;1256;72844;-38
2023/02/01 16:34:58;;;;;;;14.20;7.10;;;;;;;1.84;86.57;98276.38;107212;1257;61507;-39
2023/02/01 16:37:28;;;;;;;10.30;6.40;;;;;;;1.87;86.38;98275.67;107260;1256;60489;-38
2023/02/01 16:39:57;;;;;;;12.90;7.60;;;;;;;1.93;86.08;98276.49;107303;1257;72175;-39
2023/02/01 16:42:26;;;;;;;13.10;7.30;;;;;;;1.96;86.20;98277.98;107331;1257;69639;-38
2023/02/01 16:44:54;;;;;;;18.40;7.30;;;;;;;1.96;86.22;98280.19;107285;1257;73329;-39
2023/02/01 16:47:23;;;;;;;15.10;7.30;;;;;;;1.95;86.17;98282.64;107249;1257;62172;-39
2023/02/01 16:49:55;;;;;;;14.00;7.10;;;;;;;1.98;86.16;98281.23;107240;1257;61890;-38
2023/02/01 16:52:24;;;;;;;14.20;7.10;;;;;;;2.02;85.71;98284.73;107243;1260;74255;-39
2023/02/01 16:54:53;;;;;;;14.80;7.30;;;;;;;2.02;85.61;98281.61;107262;1257;69951;-38
2023/02/01 16:57:23;;;;;;;18.80;7.70;;;;;;;1.98;85.64;98285.98;107244;1257;74106;-38
2023/02/01 16:59:52;;;;;;;11.30;6.20;;;;;;;1.95;85.84;98286.23;107219;1257;60745;-39
2023/02/01 17:02:21;;;;;;;17.30;7.10;;;;;;;1.94;85.64;98285.77;107308;1257;61496;-39
2023/02/01 17:04:50;;;;;;;12.30;6.40;;;;;;;1.99;85.41;98287.70;107258;1257;74217;-39
2023/02/01 17:07:18;;;;;;;12.90;7.10;;;;;;;2.00;85.47;98288.84;107283;1256;70036;-39
2023/02/01 17:09:47;;;;;;;11.40;6.80;;;;;;;1.97;85.37;98289.39;107160;1256;73881;-39
2023/02/01 17:12:24;;;;;;;13.60;7.00;;;;;;;1.94;85.41;98288.28;107146;1257;60810;-39
2023/02/01 17:14:53;;;;;;;14.70;6.70;;;;;;;1.95;85.30;98289.15;107269;1257;60368;-39
2023/02/01 17:17:21;;;;;;;12.70;6.20;;;;;;;1.99;85.12;98284.11;107134;1257;72928;-39
2023/02/01 17:20:06;;;;;;;13.40;7.40;;;;;;;2.01;85.03;98283.09;107224;1260;69037;-39
2023/02/01 17:22:34;;;;;;;10.00;5.50;;;;;;;1.97;85.17;98283.89;107272;1257;71611;-39
2023/02/01 17:25:05;;;;;;;14.30;6.90;;;;;;;1.92;84.91;98283.93;107270;1257;62382;-39
2023/02/01 17:27:37;;;;;;;14.50;6.80;;;;;;;1.90;84.97;98286.23;107225;1257;61401;-39
2023/02/01 17:30:09;;;;;;;11.10;6.70;;;;;;;1.93;84.93;98286.02;107235;1257;74352;-39
2023/02/01 17:32:38;;;;;;;14.60;6.70;;;;;;;1.95;84.85;98288.09;107285;1257;69902;-39
2023/02/01 17:35:19;;;;;;;18.20;8.30;;;;;;;1.92;84.86;98286.55;107283;1257;72814;-39
2023/02/01 17:37:48;;;;;;;16.90;7.10;;;;;;;1.89;84.65;98288.39;107237;1260;61160;-38
2023/02/01 17:40:17;;;;;;;13.10;6.40;;;;;;;1.90;84.46;98291.04;107279;1257;61543;-39
2023/02/01 17:42:46;;;;;;;15.80;6.60;;;;;;;1.94;84.31;98295.52;107249;1260;74318;-39
2023/02/01 17:45:35;;;;;;;11.80;6.00;;;;;;;1.93;84.04;98294.27;107287;1257;70213;-39
2023/02/01 17:48:05;;;;;;;10.80;5.20;;;;;;;1.89;84.03;98294.05;107257;1257;73853;-39
2023/02/01 20:12:18;;;;;;;10.90;5.30;;;;;;;1.88;87.49;98270.70;105160;1282;613640;-37
2023/02/01 20:14:46;;;;;;;16.10;4.40;;;;;;;2.28;84.83;98274.98;106885;1257;226555;-38
2023/02/01 20:17:17;;;;;;;10.70;4.20;;;;;;;2.15;84.50;98274.20;107214;1262;61226;-37
2023/02/01 20:19:45;;;;;;;;;;;;;;;2.11;84.43;98276.11;107264;1256;74465;-37
2023/02/01 20:22:14;;;;;;;10.60;4.20;;;;;;;2.07;84.40;98277.52;107248;1258;70000;-38
2023/02/01 20:24:42;;;;;;;9.20;4.60;;;;;;;2.06;84.50;98273.42;107268;1257;72882;-38
2023/02/01 20:27:11;;;;;;;8.70;4.20;;;;;;;2.06;84.34;98275.64;107228;1257;59247;-37
2023/02/01 20:29:40;;;;;;;14.10;3.80;;;;;;;2.04;84.09;98276.04;107238;1261;61488;-37
2023/02/01 20:32:09;;;;;;;12.00;4.50;;;;;;;2.01;83.61;98273.72;107241;1259;73539;-37
2023/02/01 20:34:37;;;;;;;10.80;3.70;;;;;;;2.02;83.70;98271.55;107322;1262;69901;-37
2023/02/01 20:37:06;;;;;;;13.30;4.60;;;;;;;2.02;83.70;98274.30;107234;1262;74021;-38
2023/02/01 20:39:34;;;;;;;12.40;4.60;;;;;;;2.00;83.63;98278.50;107243;1257;60057;-38
2023/02/01 20:42:03;;;;;;;13.90;4.90;;;;;;;1.96;83.83;98278.11;107287;1258;60564;-38
2023/02/01 20:44:31;;;;;;;12.00;4.90;;;;;;;1.96;84.05;98281.18;107219;1257;73663;-38
2023/02/01 20:47:01;;;;;;;14.50;4.30;;;;;;;2.00;83.88;98279.55;107198;1261;69814;-38
2023/02/01 20:49:33;;;;;;;16.30;5.00;;;;;;;1.99;83.89;98284.02;107211;1257;72913;-38
2023/02/01 20:52:01;;;;;;;13.80;4.40;;;;;;;1.95;83.99;98283.42;107249;1258;60964;-38
2023/02/01 20:54:31;;;;;;;14.00;4.90;;;;;;;1.95;84.03;98282.83;107249;1259;60922;-38
2023/02/01 20:56:59;;;;;;;12.00;4.50;;;;;;;1.98;84.07;98283.37;107264;1257;73974;-38
2023/02/01 20:59:28;;;;;;;12.40;4.70;;;;;;;1.97;84.08;98285.33;107256;1261;70058;-38
2023/02/01 21:01:56;;;;;;;11.40;4.30;;;;;;;1.96;84.21;98282.54;107241;1262;73738;-37
2023/02/01 21:04:28;;;;;;;15.20;5.10;;;;;;;1.95;84.23;98279.97;107291;1257;62466;-37
2023/02/01 21:07:01;;;;;;;11.60;5.00;;;;;;;1.97;84.07;98281.14;107229;1258;61490;-37
2023/02/01 21:09:30;;;;;;;11.80;4.30;;;;;;;2.02;84.07;98283.14;107261;1261;73376;-37
2023/02/01 21:11:59;;;;;;;11.70;3.90;;;;;;;2.02;83.83;98285.28;107161;1261;69930;-37
2023/02/01 21:14:28;;;;;;;11.60;4.50;;;;;;;1.99;83.89;98289.21;107135;1257;73474;-37
2023/02/01 21:16:57;;;;;;;9.50;4.10;;;;;;;1.94;84.09;98288.05;107153;1257;62361;-37
2023/02/01 21:19:25;;;;;;;9.80;4.30;;;;;;;1.95;83.97;98289.14;107275;1259;61539;-37
2023/02/01 21:21:54;;;;;;;12.00;4.90;;;;;;;1.98;83.78;98289.35;107274;1260;73723;-38
2023/02/01 21:24:23;;;;;;;13.40;4.70;;;;;;;1.98;83.85;98287.34;107259;1262;69992;-37
2023/02/01 21:26:51;;;;;;;10.70;4.60;;;;;;;1.94;84.15;98288.40;107235;1258;73869;-37
2023/02/01 21:29:20;;;;;;;11.70;5.10;;;;;;;1.90;84.07;98289.36;107227;1257;62426;-37
2023/02/01 21:31:49;;;;;;;11.30;4.80;;;;;;;1.91;84.38;98287.59;107234;1258;61421;-37
2023/02/01 21:34:17;;;;;;;16.30;6.00;;;;;;;1.93;84.05;98289.86;107174;1262;74269;-37
2023/02/01 21:36:46;;;;;;;16.30;5.80;;;;;;;1.93;84.23;98288.55;107262;1257;70237;-37
2023/02/01 21:39:16;;;;;;;11.10;4.70;;;;;;;1.90;84.18;98290.52;107123;1263;72740;-37
2023/02/01 21:44:32;;;;;;;12.80;4.80;;;;;;;1.93;84.31;98289.17;107122;1262;61545;-37
2023/02/01 21:47:01;;;;;;;8.90;4.50;;;;;;;1.91;84.34;98288.02;107264;1257;74105;-38
2023/02/01 21:49:29;;;;;;;15.30;4.90;;;;;;;1.89;84.38;98289.77;107224;1261;69747;-37
2023/02/01 21:51:59;;;;;;;10.60;4.20;;;;;;;1.85;84.49;98285.65;107178;1262;73068;-37
2023/02/01 21:54:28;;;;;;;13.10;4.40;;;;;;;1.86;84.21;98286.69;107268;1258;61731;-37
2023/02/01 21:56:56;;;;;;;14.50;4.00;;;;;;;1.90;84.23;98282.95;107222;1258;61880;-38
2023/02/01 21:59:25;;;;;;;11.60;4.30;;;;;;;1.91;84.21;98280.08;107229;1262;74255;-38
2023/02/01 22:01:53;;;;;;;10.90;4.60;;;;;;;1.90;84.28;98279.66;107221;1262;69934;-38
2023/02/01 22:04:22;;;;;;;11.30;4.60;;;;;;;1.89;84.03;98280.93;107277;1257;72133;-38
2023/02/01 22:06:50;;;;;;;13.80;4.70;;;;;;;1.91;83.98;98284.73;107175;1260;62417;-38
2023/02/01 22:09:21;;;;;;;7.80;4.10;;;;;;;1.91;83.84;98283.38;107244;1263;61544;-38
2023/02/01 22:11:50;;;;;;;11.40;4.70;;;;;;;1.90;84.06;98282.78;107224;1257;73929;-38
2023/02/01 22:14:18;;;;;;;10.70;4.20;;;;;;;1.87;84.01;98285.30;107267;1261;69682;-38
2023/02/01 22:16:47;;;;;;;10.10;5.40;;;;;;;1.83;84.13;98282.48;107267;1257;73832;-38
2023/02/01 22:19:17;;;;;;;13.80;5.10;;;;;;;1.84;84.12;98280.29;107245;1257;60187;-38
2023/02/01 22:21:46;;;;;;;14.60;6.20;;;;;;;1.90;84.10;98280.65;107220;1260;61562;-37
2023/02/01 22:24:16;;;;;;;12.20;5.00;;;;;;;1.86;83.88;98272.73;107231;1258;74232;-37
2023/02/01 22:26:45;;;;;;;14.10;5.80;;;;;;;1.88;83.98;98282.36;107235;1260;69858;-37
2023/02/01 22:29:15;;;;;;;13.70;5.00;;;;;;;1.85;84.13;98281.77;107232;1258;73893;-37
2023/02/01 22:31:44;;;;;;;14.40;5.20;;;;;;;1.84;84.09;98284.34;107227;1257;61330;-37
2023/02/01 22:34:14;;;;;;;14.70;5.60;;;;;;;1.86;84.24;98290.27;107244;1257;60024;-37
2023/02/01 22:36:43;;;;;;;16.90;5.50;;;;;;;1.83;84.17;98287.52;107249;1257;73399;-37
2023/02/01 22:39:11;;;;;;;14.90;5.40;;;;;;;1.79;84.32;98289.87;107248;1258;69999;-37
2023/02/01 22:41:39;;;;;;;12.00;5.30;;;;;;;1.74;84.71;98290.09;107047;1256;74143;-37
2023/02/01 22:44:08;;;;;;;15.00;5.40;;;;;;;1.76;84.69;98294.04;107233;1257;62354;-37
2023/02/01 22:46:36;;;;;;;13.90;5.80;;;;;;;1.78;84.62;98290.09;107283;1256;61125;-37
2023/02/01 22:49:05;;;;;;;15.10;6.30;;;;;;;1.77;85.05;98290.57;107267;1257;74350;-37